This is the latest recevied weather packets stored in our database for station/object WS2Z. If no packets are shown the sender has not sent any weather packets the latest 10 day(s).
| Time | Temp. | Humidity | Pressure | Rain* | Wind** | Luminosity | Snow |
|---|---|---|---|---|---|---|---|
| 1777689323 | 23.89° C | 82% | 1012.6 hPa | 0 mm | - | 0 W/m² | - |
| 1777689020 | 23.89° C | 81% | 1012.5 hPa | 0 mm | - | 0 W/m² | - |
| 1777688717 | 23.89° C | 81% | 1012.7 hPa | 0 mm | - | 0 W/m² | - |
| 1777688112 | 23.89° C | 81% | 1012.6 hPa | 0 mm | - | 0 W/m² | - |
| 1777674172 | 28.89° C | 51% | 1010.5 hPa | 0 mm | - | 175 W/m² | - |
| 1777673264 | 28.89° C | 48% | 1010.7 hPa | 0 mm | - | 106 W/m² | - |
| 1777672961 | 28.89° C | 49% | 1010.7 hPa | 0 mm | - | 143 W/m² | - |
| 1777672659 | 29.44° C | 46% | 1010.8 hPa | 0 mm | - | 175 W/m² | - |
| 1777672359 | 30° C | 46% | 1010.7 hPa | 0 mm | - | 274 W/m² | - |
| 1777671447 | 29.44° C | 43% | 1010.9 hPa | 0 mm | - | 324 W/m² | - |
| 1777671143 | 29.44° C | 41% | 1010.9 hPa | 0 mm | - | 342 W/m² | - |
| 1777670839 | 29.44° C | 42% | 1010.8 hPa | 0 mm | - | 321 W/m² | - |
| 1777670536 | 30.56° C | 40% | 1011.1 hPa | 0 mm | - | 378 W/m² | - |
| 1777670233 | 30° C | 40% | 1011.2 hPa | 0 mm | - | 393 W/m² | - |
| 1777669627 | 30.56° C | 38% | 1011.3 hPa | 0 mm | - | 421 W/m² | - |
| 1777669324 | 30° C | 43% | 1011.2 hPa | 0 mm | - | 410 W/m² | - |
| 1777669020 | 30.56° C | 43% | 1011.4 hPa | 0 mm | - | 465 W/m² | - |
| 1777668414 | 30° C | 42% | 1011.4 hPa | 0 mm | - | 455 W/m² | - |
| 1777668110 | 30° C | 43% | 1011.5 hPa | 0 mm | - | 522 W/m² | - |
| 1777667807 | 30.56° C | 41% | 1011.3 hPa | 0 mm | - | 531 W/m² | - |
| 1777667505 | 30° C | 41% | 1011.5 hPa | 0 mm | - | 547 W/m² | - |
| 1777667201 | 30° C | 42% | 1011.5 hPa | 0 mm | - | 560 W/m² | - |
| 1777666898 | 30° C | 43% | 1011.6 hPa | 0 mm | - | 575 W/m² | - |
| 1777666595 | 30° C | 44% | 1011.6 hPa | 0 mm | - | 592 W/m² | - |
| 1777666291 | 30° C | 44% | 1011.8 hPa | 0 mm | - | 611 W/m² | - |
* Rain latest hour (hover to see other rain measurements)
** Current wind speed in m/s (hover to see current wind gust speed)